Аэропорт: Гянджа. Гянджа

ICAO: UBBG

METAR:
2019-11-21 09:30:00
UBBG 210930Z 31004KT 9999 BKN020 08/03 Q1024 R30/CLRD// NOSIG
METAR:
2019-11-21 05:00:00
TAF UBBG 210500Z 2106/2206 VRB04KT 6000 SCT015 BKN050 TX09/2112Z TN02/2203Z BECMG 2108/2110 08014KT TEMPO 2110/2124 11024KT -RA BKN007 OVC030 TEMPO 2200/2206 3000 -DZ BR BKN006 OVC020